sensor_id;sensor_type;location;lat;lon;timestamp;temperature;humidity
57026;DHT22;43961;52.940;6.834;2023-07-13T00:02:23;15.30;99.90
57026;DHT22;43961;52.940;6.834;2023-07-13T00:04:49;15.30;99.90
57026;DHT22;43961;52.940;6.834;2023-07-13T00:07:16;15.20;99.90
57026;DHT22;43961;52.940;6.834;2023-07-13T00:09:46;15.10;99.90
57026;DHT22;43961;52.940;6.834;2023-07-13T00:12:33;15.20;99.90
57026;DHT22;43961;52.940;6.834;2023-07-13T00:15:00;15.30;99.90
57026;DHT22;43961;52.940;6.834;2023-07-13T00:17:27;15.30;99.90
57026;DHT22;43961;52.940;6.834;2023-07-13T00:19:54;15.40;99.90
57026;DHT22;43961;52.940;6.834;2023-07-13T00:22:21;15.10;99.90
57026;DHT22;43961;52.940;6.834;2023-07-13T00:24:47;15.10;99.90
57026;DHT22;43961;52.940;6.834;2023-07-13T00:27:13;15.10;99.90
57026;DHT22;43961;52.940;6.834;2023-07-13T00:29:39;15.10;99.90
57026;DHT22;43961;52.940;6.834;2023-07-13T00:32:05;15.10;99.90
57026;DHT22;43961;52.940;6.834;2023-07-13T00:34:32;15.20;99.90
57026;DHT22;43961;52.940;6.834;2023-07-13T00:36:58;15.20;99.90
57026;DHT22;43961;52.940;6.834;2023-07-13T00:39:23;15.20;99.90
57026;DHT22;43961;52.940;6.834;2023-07-13T00:41:50;15.30;99.90
57026;DHT22;43961;52.940;6.834;2023-07-13T00:44:17;15.30;99.90
57026;DHT22;43961;52.940;6.834;2023-07-13T00:46:43;15.30;99.90
57026;DHT22;43961;52.940;6.834;2023-07-13T00:49:13;15.30;99.90
57026;DHT22;43961;52.940;6.834;2023-07-13T00:54:29;15.20;99.90
57026;DHT22;43961;52.940;6.834;2023-07-13T00:56:58;15.20;99.90
57026;DHT22;43961;52.940;6.834;2023-07-13T00:59:25;15.50;99.90
57026;DHT22;43961;52.940;6.834;2023-07-13T01:01:51;15.30;99.90
57026;DHT22;43961;52.940;6.834;2023-07-13T01:04:17;15.30;99.90
57026;DHT22;43961;52.940;6.834;2023-07-13T01:06:44;15.40;99.90
57026;DHT22;43961;52.940;6.834;2023-07-13T01:09:10;15.30;99.90
57026;DHT22;43961;52.940;6.834;2023-07-13T01:11:36;15.30;99.90
57026;DHT22;43961;52.940;6.834;2023-07-13T01:14:03;15.40;99.90
57026;DHT22;43961;52.940;6.834;2023-07-13T01:16:31;15.30;99.90
57026;DHT22;43961;52.940;6.834;2023-07-13T01:18:57;15.20;99.90
57026;DHT22;43961;52.940;6.834;2023-07-13T01:21:24;15.30;99.90
57026;DHT22;43961;52.940;6.834;2023-07-13T01:23:50;15.30;99.90
57026;DHT22;43961;52.940;6.834;2023-07-13T01:26:16;15.30;99.90
57026;DHT22;43961;52.940;6.834;2023-07-13T01:28:42;15.50;99.90
57026;DHT22;43961;52.940;6.834;2023-07-13T01:31:07;15.30;99.90
57026;DHT22;43961;52.940;6.834;2023-07-13T01:33:36;15.40;99.90
57026;DHT22;43961;52.940;6.834;2023-07-13T01:36:01;15.40;99.90
57026;DHT22;43961;52.940;6.834;2023-07-13T01:38:27;15.50;99.90
57026;DHT22;43961;52.940;6.834;2023-07-13T01:40:53;15.70;99.90
57026;DHT22;43961;52.940;6.834;2023-07-13T01:43:20;15.50;99.90
57026;DHT22;43961;52.940;6.834;2023-07-13T01:45:46;15.50;99.90
57026;DHT22;43961;52.940;6.834;2023-07-13T01:48:13;15.60;99.90
57026;DHT22;43961;52.940;6.834;2023-07-13T01:50:39;15.40;99.90
57026;DHT22;43961;52.940;6.834;2023-07-13T01:53:05;15.60;99.90
57026;DHT22;43961;52.940;6.834;2023-07-13T01:55:31;15.60;99.90
57026;DHT22;43961;52.940;6.834;2023-07-13T01:57:57;15.40;99.90
57026;DHT22;43961;52.940;6.834;2023-07-13T02:00:22;15.70;99.90
57026;DHT22;43961;52.940;6.834;2023-07-13T02:02:48;15.50;99.90
57026;DHT22;43961;52.940;6.834;2023-07-13T02:05:14;15.60;99.90
57026;DHT22;43961;52.940;6.834;2023-07-13T02:07:40;15.60;99.90
57026;DHT22;43961;52.940;6.834;2023-07-13T02:10:08;15.50;99.90
57026;DHT22;43961;52.940;6.834;2023-07-13T02:12:34;15.50;99.90
57026;DHT22;43961;52.940;6.834;2023-07-13T02:15:01;15.60;99.90
57026;DHT22;43961;52.940;6.834;2023-07-13T02:17:26;15.60;99.90
57026;DHT22;43961;52.940;6.834;2023-07-13T02:19:52;15.80;99.90
57026;DHT22;43961;52.940;6.834;2023-07-13T02:22:18;15.60;99.90
57026;DHT22;43961;52.940;6.834;2023-07-13T02:24:44;15.50;99.90
57026;DHT22;43961;52.940;6.834;2023-07-13T02:27:09;15.60;99.90
57026;DHT22;43961;52.940;6.834;2023-07-13T02:29:35;15.60;99.90
57026;DHT22;43961;52.940;6.834;2023-07-13T02:32:01;15.50;99.90
57026;DHT22;43961;52.940;6.834;2023-07-13T02:34:26;15.70;99.90
57026;DHT22;43961;52.940;6.834;2023-07-13T02:36:52;15.60;99.90
57026;DHT22;43961;52.940;6.834;2023-07-13T02:39:18;15.80;99.90
57026;DHT22;43961;52.940;6.834;2023-07-13T02:41:43;15.60;99.90
57026;DHT22;43961;52.940;6.834;2023-07-13T02:44:09;15.60;99.90
57026;DHT22;43961;52.940;6.834;2023-07-13T02:46:37;15.70;99.90
57026;DHT22;43961;52.940;6.834;2023-07-13T02:49:03;15.70;99.90
57026;DHT22;43961;52.940;6.834;2023-07-13T02:51:29;15.80;99.90
57026;DHT22;43961;52.940;6.834;2023-07-13T02:53:55;15.70;99.90
57026;DHT22;43961;52.940;6.834;2023-07-13T02:56:23;15.60;99.90
57026;DHT22;43961;52.940;6.834;2023-07-13T02:58:50;15.70;99.90
57026;DHT22;43961;52.940;6.834;2023-07-13T03:01:15;15.70;99.90
57026;DHT22;43961;52.940;6.834;2023-07-13T03:03:44;15.60;99.90
57026;DHT22;43961;52.940;6.834;2023-07-13T03:06:11;15.70;99.90
57026;DHT22;43961;52.940;6.834;2023-07-13T03:08:37;15.60;99.90
57026;DHT22;43961;52.940;6.834;2023-07-13T03:11:05;15.40;99.90
57026;DHT22;43961;52.940;6.834;2023-07-13T03:13:31;15.40;99.90
57026;DHT22;43961;52.940;6.834;2023-07-13T03:15:57;15.60;99.90
57026;DHT22;43961;52.940;6.834;2023-07-13T03:18:26;15.70;99.90
57026;DHT22;43961;52.940;6.834;2023-07-13T03:20:53;15.60;99.90
57026;DHT22;43961;52.940;6.834;2023-07-13T03:23:20;15.60;99.90
57026;DHT22;43961;52.940;6.834;2023-07-13T03:25:46;15.20;99.90
57026;DHT22;43961;52.940;6.834;2023-07-13T03:28:12;15.40;99.90
57026;DHT22;43961;52.940;6.834;2023-07-13T03:30:38;15.30;99.90
57026;DHT22;43961;52.940;6.834;2023-07-13T03:33:04;15.40;99.90
57026;DHT22;43961;52.940;6.834;2023-07-13T03:35:30;15.40;99.90
57026;DHT22;43961;52.940;6.834;2023-07-13T03:37:55;15.40;99.90
57026;DHT22;43961;52.940;6.834;2023-07-13T03:40:22;15.30;99.90
57026;DHT22;43961;52.940;6.834;2023-07-13T03:42:48;15.60;99.90
57026;DHT22;43961;52.940;6.834;2023-07-13T03:45:14;15.30;99.90
57026;DHT22;43961;52.940;6.834;2023-07-13T03:47:40;15.50;99.90
57026;DHT22;43961;52.940;6.834;2023-07-13T03:50:06;15.60;99.90
57026;DHT22;43961;52.940;6.834;2023-07-13T03:52:31;15.20;99.90
57026;DHT22;43961;52.940;6.834;2023-07-13T03:54:58;15.30;99.90
57026;DHT22;43961;52.940;6.834;2023-07-13T03:57:23;15.20;99.90
57026;DHT22;43961;52.940;6.834;2023-07-13T03:59:49;15.30;99.90
57026;DHT22;43961;52.940;6.834;2023-07-13T04:02:14;15.50;99.90
57026;DHT22;43961;52.940;6.834;2023-07-13T04:04:40;15.40;99.90
57026;DHT22;43961;52.940;6.834;2023-07-13T04:07:06;15.60;99.90
57026;DHT22;43961;52.940;6.834;2023-07-13T04:09:34;15.60;99.90
57026;DHT22;43961;52.940;6.834;2023-07-13T04:11:59;15.40;99.90
57026;DHT22;43961;52.940;6.834;2023-07-13T04:14:25;15.40;99.90
57026;DHT22;43961;52.940;6.834;2023-07-13T04:16:51;15.60;99.90
57026;DHT22;43961;52.940;6.834;2023-07-13T04:19:16;15.50;99.90
57026;DHT22;43961;52.940;6.834;2023-07-13T04:21:42;15.60;99.90
57026;DHT22;43961;52.940;6.834;2023-07-13T04:24:08;15.50;99.90
57026;DHT22;43961;52.940;6.834;2023-07-13T04:26:34;15.60;99.90
57026;DHT22;43961;52.940;6.834;2023-07-13T04:29:01;15.60;99.90
57026;DHT22;43961;52.940;6.834;2023-07-13T04:31:29;15.60;99.90
57026;DHT22;43961;52.940;6.834;2023-07-13T04:33:55;15.70;99.90
57026;DHT22;43961;52.940;6.834;2023-07-13T04:36:21;15.60;99.90
57026;DHT22;43961;52.940;6.834;2023-07-13T04:38:46;15.60;99.90
57026;DHT22;43961;52.940;6.834;2023-07-13T04:41:13;15.40;99.90
57026;DHT22;43961;52.940;6.834;2023-07-13T04:43:40;15.40;99.90
57026;DHT22;43961;52.940;6.834;2023-07-13T04:46:11;15.40;99.90
57026;DHT22;43961;52.940;6.834;2023-07-13T04:48:37;15.30;99.90
57026;DHT22;43961;52.940;6.834;2023-07-13T04:51:04;15.30;99.90
57026;DHT22;43961;52.940;6.834;2023-07-13T04:53:30;15.30;99.90
57026;DHT22;43961;52.940;6.834;2023-07-13T04:55:56;15.30;99.90
57026;DHT22;43961;52.940;6.834;2023-07-13T04:58:22;15.30;99.90
57026;DHT22;43961;52.940;6.834;2023-07-13T05:00:48;15.30;99.90
57026;DHT22;43961;52.940;6.834;2023-07-13T05:03:14;15.30;99.90
57026;DHT22;43961;52.940;6.834;2023-07-13T05:05:40;15.20;99.90
57026;DHT22;43961;52.940;6.834;2023-07-13T05:08:06;15.20;99.90
57026;DHT22;43961;52.940;6.834;2023-07-13T05:10:33;15.30;99.90
57026;DHT22;43961;52.940;6.834;2023-07-13T05:12:58;15.30;99.90
57026;DHT22;43961;52.940;6.834;2023-07-13T05:15:24;15.30;99.90
57026;DHT22;43961;52.940;6.834;2023-07-13T05:17:51;15.30;99.90
57026;DHT22;43961;52.940;6.834;2023-07-13T05:20:17;15.60;99.90
57026;DHT22;43961;52.940;6.834;2023-07-13T05:22:43;15.50;99.90
57026;DHT22;43961;52.940;6.834;2023-07-13T05:25:09;15.40;99.90
57026;DHT22;43961;52.940;6.834;2023-07-13T05:27:36;15.50;99.90
57026;DHT22;43961;52.940;6.834;2023-07-13T05:30:03;15.50;99.90
57026;DHT22;43961;52.940;6.834;2023-07-13T05:32:29;15.40;99.90
57026;DHT22;43961;52.940;6.834;2023-07-13T05:34:54;15.70;99.90
57026;DHT22;43961;52.940;6.834;2023-07-13T05:37:20;15.50;99.90
57026;DHT22;43961;52.940;6.834;2023-07-13T05:39:46;15.60;99.90
57026;DHT22;43961;52.940;6.834;2023-07-13T05:42:11;15.80;99.90
57026;DHT22;43961;52.940;6.834;2023-07-13T05:44:37;15.60;99.90
57026;DHT22;43961;52.940;6.834;2023-07-13T05:47:03;15.70;99.90
57026;DHT22;43961;52.940;6.834;2023-07-13T05:49:29;15.70;99.90
57026;DHT22;43961;52.940;6.834;2023-07-13T05:51:56;16.00;99.90
57026;DHT22;43961;52.940;6.834;2023-07-13T05:54:21;16.00;99.90
57026;DHT22;43961;52.940;6.834;2023-07-13T05:56:47;15.80;99.90
57026;DHT22;43961;52.940;6.834;2023-07-13T05:59:12;16.10;99.90
57026;DHT22;43961;52.940;6.834;2023-07-13T06:01:38;16.30;99.90
57026;DHT22;43961;52.940;6.834;2023-07-13T06:04:04;16.00;99.90
57026;DHT22;43961;52.940;6.834;2023-07-13T06:06:30;16.20;99.90
57026;DHT22;43961;52.940;6.834;2023-07-13T06:08:56;16.10;99.90
57026;DHT22;43961;52.940;6.834;2023-07-13T06:11:23;16.20;99.90
57026;DHT22;43961;52.940;6.834;2023-07-13T06:13:49;16.50;99.90
57026;DHT22;43961;52.940;6.834;2023-07-13T06:16:16;16.50;99.90
57026;DHT22;43961;52.940;6.834;2023-07-13T06:18:42;16.70;99.90
57026;DHT22;43961;52.940;6.834;2023-07-13T06:21:09;16.50;99.90
57026;DHT22;43961;52.940;6.834;2023-07-13T06:23:36;16.80;99.90
57026;DHT22;43961;52.940;6.834;2023-07-13T06:26:04;16.70;99.90
57026;DHT22;43961;52.940;6.834;2023-07-13T06:28:31;16.60;99.90
57026;DHT22;43961;52.940;6.834;2023-07-13T06:30:57;17.00;99.90
57026;DHT22;43961;52.940;6.834;2023-07-13T06:33:23;17.20;99.90
57026;DHT22;43961;52.940;6.834;2023-07-13T06:35:49;17.10;99.90
57026;DHT22;43961;52.940;6.834;2023-07-13T06:38:15;17.00;99.90
57026;DHT22;43961;52.940;6.834;2023-07-13T06:40:41;17.20;99.90
57026;DHT22;43961;52.940;6.834;2023-07-13T06:43:06;17.20;99.90
57026;DHT22;43961;52.940;6.834;2023-07-13T06:45:39;17.40;99.90
57026;DHT22;43961;52.940;6.834;2023-07-13T06:48:06;17.70;99.90
57026;DHT22;43961;52.940;6.834;2023-07-13T06:50:31;17.70;99.90
57026;DHT22;43961;52.940;6.834;2023-07-13T06:52:58;18.20;99.90
57026;DHT22;43961;52.940;6.834;2023-07-13T06:55:25;18.20;99.90
57026;DHT22;43961;52.940;6.834;2023-07-13T06:57:51;18.70;99.90
57026;DHT22;43961;52.940;6.834;2023-07-13T07:00:17;18.70;99.90
57026;DHT22;43961;52.940;6.834;2023-07-13T07:02:42;19.20;99.90
57026;DHT22;43961;52.940;6.834;2023-07-13T07:05:08;19.20;99.90
57026;DHT22;43961;52.940;6.834;2023-07-13T07:07:34;19.40;99.90
57026;DHT22;43961;52.940;6.834;2023-07-13T07:09:59;19.60;99.90
57026;DHT22;43961;52.940;6.834;2023-07-13T07:12:25;19.80;99.90
57026;DHT22;43961;52.940;6.834;2023-07-13T07:14:50;19.90;99.90
57026;DHT22;43961;52.940;6.834;2023-07-13T07:17:16;20.00;99.90
57026;DHT22;43961;52.940;6.834;2023-07-13T07:19:42;20.10;99.90
57026;DHT22;43961;52.940;6.834;2023-07-13T07:22:07;20.10;99.90
57026;DHT22;43961;52.940;6.834;2023-07-13T07:24:33;20.20;99.90
57026;DHT22;43961;52.940;6.834;2023-07-13T07:26:59;20.20;99.90
57026;DHT22;43961;52.940;6.834;2023-07-13T07:29:25;20.40;99.90
57026;DHT22;43961;52.940;6.834;2023-07-13T07:31:52;20.20;99.90
57026;DHT22;43961;52.940;6.834;2023-07-13T07:34:17;20.40;99.90
57026;DHT22;43961;52.940;6.834;2023-07-13T07:36:43;20.00;99.90
57026;DHT22;43961;52.940;6.834;2023-07-13T07:39:09;19.90;99.90
57026;DHT22;43961;52.940;6.834;2023-07-13T07:41:34;20.00;99.90
57026;DHT22;43961;52.940;6.834;2023-07-13T07:44:00;19.90;99.90
57026;DHT22;43961;52.940;6.834;2023-07-13T07:46:25;19.80;99.90
57026;DHT22;43961;52.940;6.834;2023-07-13T07:48:51;19.70;99.90
57026;DHT22;43961;52.940;6.834;2023-07-13T07:51:17;19.60;99.90
57026;DHT22;43961;52.940;6.834;2023-07-13T07:53:42;19.80;99.90
57026;DHT22;43961;52.940;6.834;2023-07-13T07:56:08;19.60;99.90
57026;DHT22;43961;52.940;6.834;2023-07-13T07:58:35;19.90;99.90
57026;DHT22;43961;52.940;6.834;2023-07-13T08:01:07;19.60;99.90
57026;DHT22;43961;52.940;6.834;2023-07-13T08:03:32;19.60;99.90
57026;DHT22;43961;52.940;6.834;2023-07-13T08:05:58;19.70;99.90
57026;DHT22;43961;52.940;6.834;2023-07-13T08:08:24;19.40;99.90
57026;DHT22;43961;52.940;6.834;2023-07-13T08:10:50;19.40;99.90
57026;DHT22;43961;52.940;6.834;2023-07-13T08:13:16;19.50;99.90
57026;DHT22;43961;52.940;6.834;2023-07-13T08:15:41;19.50;99.90
57026;DHT22;43961;52.940;6.834;2023-07-13T08:18:08;19.80;99.90
57026;DHT22;43961;52.940;6.834;2023-07-13T08:20:37;19.60;99.90
57026;DHT22;43961;52.940;6.834;2023-07-13T08:23:03;19.70;99.90
57026;DHT22;43961;52.940;6.834;2023-07-13T08:25:29;19.80;99.90
57026;DHT22;43961;52.940;6.834;2023-07-13T08:27:55;19.90;99.90
57026;DHT22;43961;52.940;6.834;2023-07-13T08:30:20;19.70;99.90
57026;DHT22;43961;52.940;6.834;2023-07-13T08:32:46;19.70;99.90
57026;DHT22;43961;52.940;6.834;2023-07-13T08:35:12;19.80;99.90
57026;DHT22;43961;52.940;6.834;2023-07-13T08:37:39;19.80;99.90
57026;DHT22;43961;52.940;6.834;2023-07-13T08:40:05;19.80;99.90
57026;DHT22;43961;52.940;6.834;2023-07-13T08:42:51;19.90;99.90
57026;DHT22;43961;52.940;6.834;2023-07-13T08:45:46;20.10;99.90
57026;DHT22;43961;52.940;6.834;2023-07-13T08:48:24;20.30;99.90
57026;DHT22;43961;52.940;6.834;2023-07-13T08:50:57;20.10;99.90
57026;DHT22;43961;52.940;6.834;2023-07-13T08:53:36;20.20;99.90
57026;DHT22;43961;52.940;6.834;2023-07-13T08:56:05;20.00;99.90
57026;DHT22;43961;52.940;6.834;2023-07-13T08:58:36;19.90;99.90
57026;DHT22;43961;52.940;6.834;2023-07-13T09:04:19;19.70;99.90
57026;DHT22;43961;52.940;6.834;2023-07-13T09:12:14;19.50;99.90
57026;DHT22;43961;52.940;6.834;2023-07-13T09:14:47;19.10;99.90
57026;DHT22;43961;52.940;6.834;2023-07-13T09:17:26;19.20;99.90
57026;DHT22;43961;52.940;6.834;2023-07-13T09:20:21;19.10;99.90
57026;DHT22;43961;52.940;6.834;2023-07-13T09:22:49;19.20;99.90
57026;DHT22;43961;52.940;6.834;2023-07-13T09:25:36;18.80;99.90
57026;DHT22;43961;52.940;6.834;2023-07-13T09:28:11;18.90;99.90
57026;DHT22;43961;52.940;6.834;2023-07-13T09:31:03;18.70;99.90
57026;DHT22;43961;52.940;6.834;2023-07-13T09:33:30;18.60;99.90
57026;DHT22;43961;52.940;6.834;2023-07-13T09:35:57;19.00;99.90
57026;DHT22;43961;52.940;6.834;2023-07-13T09:38:25;18.70;99.90
57026;DHT22;43961;52.940;6.834;2023-07-13T09:41:15;18.60;99.90
57026;DHT22;43961;52.940;6.834;2023-07-13T09:44:09;18.60;99.90
57026;DHT22;43961;52.940;6.834;2023-07-13T09:46:35;18.60;99.90
57026;DHT22;43961;52.940;6.834;2023-07-13T09:49:00;18.40;99.90
57026;DHT22;43961;52.940;6.834;2023-07-13T09:51:26;18.10;99.90
57026;DHT22;43961;52.940;6.834;2023-07-13T09:53:51;18.30;99.90
57026;DHT22;43961;52.940;6.834;2023-07-13T09:56:23;18.20;99.90
57026;DHT22;43961;52.940;6.834;2023-07-13T09:58:49;17.80;99.90
57026;DHT22;43961;52.940;6.834;2023-07-13T10:01:15;17.70;99.90
57026;DHT22;43961;52.940;6.834;2023-07-13T10:03:52;17.80;99.90
57026;DHT22;43961;52.940;6.834;2023-07-13T10:06:20;17.80;99.90
57026;DHT22;43961;52.940;6.834;2023-07-13T10:08:52;18.10;99.90
57026;DHT22;43961;52.940;6.834;2023-07-13T10:11:23;18.20;99.90
57026;DHT22;43961;52.940;6.834;2023-07-13T10:13:53;18.20;99.90
57026;DHT22;43961;52.940;6.834;2023-07-13T10:16:22;18.60;99.90
57026;DHT22;43961;52.940;6.834;2023-07-13T10:19:05;18.70;99.90
57026;DHT22;43961;52.940;6.834;2023-07-13T10:21:35;19.00;99.90
57026;DHT22;43961;52.940;6.834;2023-07-13T10:24:24;19.10;99.90
57026;DHT22;43961;52.940;6.834;2023-07-13T10:27:01;19.40;99.90
57026;DHT22;43961;52.940;6.834;2023-07-13T10:29:32;20.10;99.90
57026;DHT22;43961;52.940;6.834;2023-07-13T10:32:00;20.40;99.90
57026;DHT22;43961;52.940;6.834;2023-07-13T10:34:26;20.50;99.90
57026;DHT22;43961;52.940;6.834;2023-07-13T10:36:52;20.50;99.90
57026;DHT22;43961;52.940;6.834;2023-07-13T10:39:20;20.60;99.90
57026;DHT22;43961;52.940;6.834;2023-07-13T10:41:58;20.90;99.90
57026;DHT22;43961;52.940;6.834;2023-07-13T10:44:28;21.00;99.90
57026;DHT22;43961;52.940;6.834;2023-07-13T10:47:03;21.30;99.90
57026;DHT22;43961;52.940;6.834;2023-07-13T10:49:32;21.70;99.90
57026;DHT22;43961;52.940;6.834;2023-07-13T10:51:58;22.00;99.90
57026;DHT22;43961;52.940;6.834;2023-07-13T10:54:31;22.40;99.90
57026;DHT22;43961;52.940;6.834;2023-07-13T10:57:18;22.80;99.90
57026;DHT22;43961;52.940;6.834;2023-07-13T11:00:15;22.70;99.90
57026;DHT22;43961;52.940;6.834;2023-07-13T11:02:41;22.80;99.90
57026;DHT22;43961;52.940;6.834;2023-07-13T11:05:34;22.90;99.90
57026;DHT22;43961;52.940;6.834;2023-07-13T11:08:13;23.10;99.90
57026;DHT22;43961;52.940;6.834;2023-07-13T11:10:51;23.30;99.90
57026;DHT22;43961;52.940;6.834;2023-07-13T11:13:39;23.70;99.90
57026;DHT22;43961;52.940;6.834;2023-07-13T11:18:48;23.80;99.90
57026;DHT22;43961;52.940;6.834;2023-07-13T11:21:23;23.50;99.90
57026;DHT22;43961;52.940;6.834;2023-07-13T11:23:54;23.60;99.90
57026;DHT22;43961;52.940;6.834;2023-07-13T11:26:44;23.00;99.90
57026;DHT22;43961;52.940;6.834;2023-07-13T11:31:55;22.80;99.90
57026;DHT22;43961;52.940;6.834;2023-07-13T11:34:28;23.10;99.90
57026;DHT22;43961;52.940;6.834;2023-07-13T11:36:56;22.50;99.90
57026;DHT22;43961;52.940;6.834;2023-07-13T11:39:32;22.20;99.90
57026;DHT22;43961;52.940;6.834;2023-07-13T11:42:02;21.40;99.90
57026;DHT22;43961;52.940;6.834;2023-07-13T11:44:30;21.20;99.90
57026;DHT22;43961;52.940;6.834;2023-07-13T11:47:08;20.60;99.90
57026;DHT22;43961;52.940;6.834;2023-07-13T11:49:45;20.60;99.90
57026;DHT22;43961;52.940;6.834;2023-07-13T11:52:17;20.20;99.90
57026;DHT22;43961;52.940;6.834;2023-07-13T11:57:27;19.50;99.90
57026;DHT22;43961;52.940;6.834;2023-07-13T11:59:55;19.50;99.90
57026;DHT22;43961;52.940;6.834;2023-07-13T12:02:33;19.70;99.90
57026;DHT22;43961;52.940;6.834;2023-07-13T12:05:01;19.70;99.90
57026;DHT22;43961;52.940;6.834;2023-07-13T12:07:30;19.40;99.90
57026;DHT22;43961;52.940;6.834;2023-07-13T12:10:17;19.70;99.90
57026;DHT22;43961;52.940;6.834;2023-07-13T12:12:53;19.90;99.90
57026;DHT22;43961;52.940;6.834;2023-07-13T12:15:20;19.80;99.90
57026;DHT22;43961;52.940;6.834;2023-07-13T12:17:47;20.40;99.90
57026;DHT22;43961;52.940;6.834;2023-07-13T12:20:24;20.40;99.90
57026;DHT22;43961;52.940;6.834;2023-07-13T12:22:51;20.80;99.90
57026;DHT22;43961;52.940;6.834;2023-07-13T12:25:18;20.60;99.90
57026;DHT22;43961;52.940;6.834;2023-07-13T12:27:48;20.90;99.90
57026;DHT22;43961;52.940;6.834;2023-07-13T12:30:32;21.20;99.90
57026;DHT22;43961;52.940;6.834;2023-07-13T12:33:02;21.20;99.90
57026;DHT22;43961;52.940;6.834;2023-07-13T12:35:47;21.60;99.90
57026;DHT22;43961;52.940;6.834;2023-07-13T12:38:13;21.40;99.90
57026;DHT22;43961;52.940;6.834;2023-07-13T12:40:40;21.10;99.90
57026;DHT22;43961;52.940;6.834;2023-07-13T12:43:14;21.10;99.90
57026;DHT22;43961;52.940;6.834;2023-07-13T12:46:04;21.30;99.90
57026;DHT22;43961;52.940;6.834;2023-07-13T12:48:38;21.60;99.90
57026;DHT22;43961;52.940;6.834;2023-07-13T12:51:04;21.60;99.90
57026;DHT22;43961;52.940;6.834;2023-07-13T12:53:40;21.90;99.90
57026;DHT22;43961;52.940;6.834;2023-07-13T12:56:08;22.50;99.90
57026;DHT22;43961;52.940;6.834;2023-07-13T12:58:39;22.30;99.90
57026;DHT22;43961;52.940;6.834;2023-07-13T13:01:07;22.50;99.90
57026;DHT22;43961;52.940;6.834;2023-07-13T13:03:38;22.80;99.90
57026;DHT22;43961;52.940;6.834;2023-07-13T13:06:23;23.10;99.90
57026;DHT22;43961;52.940;6.834;2023-07-13T13:08:57;23.30;99.90
57026;DHT22;43961;52.940;6.834;2023-07-13T13:11:28;23.30;99.90
57026;DHT22;43961;52.940;6.834;2023-07-13T13:13:55;23.50;99.90
57026;DHT22;43961;52.940;6.834;2023-07-13T13:16:22;23.70;99.90
57026;DHT22;43961;52.940;6.834;2023-07-13T13:18:49;23.60;99.90
57026;DHT22;43961;52.940;6.834;2023-07-13T13:21:17;23.60;99.90
57026;DHT22;43961;52.940;6.834;2023-07-13T13:23:43;24.10;99.90
57026;DHT22;43961;52.940;6.834;2023-07-13T13:26:14;24.00;99.90
57026;DHT22;43961;52.940;6.834;2023-07-13T13:28:44;24.10;99.90
57026;DHT22;43961;52.940;6.834;2023-07-13T13:31:11;24.10;99.90
57026;DHT22;43961;52.940;6.834;2023-07-13T13:33:39;24.00;99.90
57026;DHT22;43961;52.940;6.834;2023-07-13T13:36:21;24.00;99.90
57026;DHT22;43961;52.940;6.834;2023-07-13T13:38:50;23.90;99.90
57026;DHT22;43961;52.940;6.834;2023-07-13T13:41:17;23.90;99.90
57026;DHT22;43961;52.940;6.834;2023-07-13T13:43:43;24.00;99.90
57026;DHT22;43961;52.940;6.834;2023-07-13T13:46:21;24.10;99.90
57026;DHT22;43961;52.940;6.834;2023-07-13T13:48:48;24.00;99.90
57026;DHT22;43961;52.940;6.834;2023-07-13T13:51:19;24.10;99.90
57026;DHT22;43961;52.940;6.834;2023-07-13T13:53:46;24.10;99.90
57026;DHT22;43961;52.940;6.834;2023-07-13T13:56:13;24.30;99.90
57026;DHT22;43961;52.940;6.834;2023-07-13T13:58:39;24.20;99.90
57026;DHT22;43961;52.940;6.834;2023-07-13T14:01:10;24.20;99.90
57026;DHT22;43961;52.940;6.834;2023-07-13T14:03:37;24.10;99.90
57026;DHT22;43961;52.940;6.834;2023-07-13T14:06:03;24.10;99.90
57026;DHT22;43961;52.940;6.834;2023-07-13T14:08:29;24.00;99.90
57026;DHT22;43961;52.940;6.834;2023-07-13T14:10:56;23.80;99.90
57026;DHT22;43961;52.940;6.834;2023-07-13T14:13:34;23.80;99.90
57026;DHT22;43961;52.940;6.834;2023-07-13T14:16:01;23.60;99.90
57026;DHT22;43961;52.940;6.834;2023-07-13T14:18:28;23.50;99.90
57026;DHT22;43961;52.940;6.834;2023-07-13T14:20:53;23.50;99.90
57026;DHT22;43961;52.940;6.834;2023-07-13T14:23:19;23.30;99.90
57026;DHT22;43961;52.940;6.834;2023-07-13T14:25:46;23.10;99.90
57026;DHT22;43961;52.940;6.834;2023-07-13T14:28:19;23.10;99.90
57026;DHT22;43961;52.940;6.834;2023-07-13T14:30:46;23.30;99.90
57026;DHT22;43961;52.940;6.834;2023-07-13T14:33:12;23.30;99.90
57026;DHT22;43961;52.940;6.834;2023-07-13T14:35:38;23.30;99.90
57026;DHT22;43961;52.940;6.834;2023-07-13T14:38:04;23.50;99.90
57026;DHT22;43961;52.940;6.834;2023-07-13T14:40:31;23.50;99.90
57026;DHT22;43961;52.940;6.834;2023-07-13T14:42:58;23.40;99.90
57026;DHT22;43961;52.940;6.834;2023-07-13T14:45:24;23.50;99.90
57026;DHT22;43961;52.940;6.834;2023-07-13T14:47:51;23.40;99.90
57026;DHT22;43961;52.940;6.834;2023-07-13T14:50:24;23.50;99.90
57026;DHT22;43961;52.940;6.834;2023-07-13T14:52:52;23.60;99.90
57026;DHT22;43961;52.940;6.834;2023-07-13T14:55:19;23.80;99.90
57026;DHT22;43961;52.940;6.834;2023-07-13T14:57:45;23.70;99.90
57026;DHT22;43961;52.940;6.834;2023-07-13T15:00:19;23.70;99.90
57026;DHT22;43961;52.940;6.834;2023-07-13T15:02:53;23.90;99.90
57026;DHT22;43961;52.940;6.834;2023-07-13T15:05:25;23.70;99.90
57026;DHT22;43961;52.940;6.834;2023-07-13T15:07:53;23.60;99.90
57026;DHT22;43961;52.940;6.834;2023-07-13T15:10:24;23.70;99.90
57026;DHT22;43961;52.940;6.834;2023-07-13T15:12:56;23.70;99.90
57026;DHT22;43961;52.940;6.834;2023-07-13T15:15:23;23.70;99.90
57026;DHT22;43961;52.940;6.834;2023-07-13T15:17:48;23.60;99.90
57026;DHT22;43961;52.940;6.834;2023-07-13T15:20:32;23.70;99.90
57026;DHT22;43961;52.940;6.834;2023-07-13T15:22:58;23.70;99.90
57026;DHT22;43961;52.940;6.834;2023-07-13T15:25:29;23.70;99.90
57026;DHT22;43961;52.940;6.834;2023-07-13T15:27:56;23.60;99.90
57026;DHT22;43961;52.940;6.834;2023-07-13T15:30:27;23.50;99.90
57026;DHT22;43961;52.940;6.834;2023-07-13T15:32:56;23.50;99.90
57026;DHT22;43961;52.940;6.834;2023-07-13T15:35:26;23.40;99.90
57026;DHT22;43961;52.940;6.834;2023-07-13T15:37:52;23.50;99.90
57026;DHT22;43961;52.940;6.834;2023-07-13T15:40:19;23.40;99.90
57026;DHT22;43961;52.940;6.834;2023-07-13T15:42:47;23.30;99.90
57026;DHT22;43961;52.940;6.834;2023-07-13T15:45:21;23.20;99.90
57026;DHT22;43961;52.940;6.834;2023-07-13T15:47:48;23.10;99.90
57026;DHT22;43961;52.940;6.834;2023-07-13T15:50:17;23.20;99.90
57026;DHT22;43961;52.940;6.834;2023-07-13T15:52:45;23.10;99.90
57026;DHT22;43961;52.940;6.834;2023-07-13T15:55:13;23.10;99.90
57026;DHT22;43961;52.940;6.834;2023-07-13T15:57:47;23.00;99.90
57026;DHT22;43961;52.940;6.834;2023-07-13T16:00:19;23.20;99.90